Time;durP1;ratioP1;P1;durP2;ratioP2;P2;SDS_P1;SDS_P2;PMS_P1;PMS_P2;Temp;Humidity;BMP_temperature;BMP_pressure;BME280_temperature;BME280_humidity;BME280_pressure;Samples;Min_cycle;Max_cycle;Signal;HPM_P1;HPM_P2
2022/12/31 00:01:22;;;;;;;1.70;1.00;;;;;;;;;;5057306;28;20029;-32
2022/12/31 00:03:48;;;;;;;3.17;1.05;;;;;;;;;;5057147;28;20498;-34
2022/12/31 00:06:24;;;;;;;2.83;2.42;;;;;;;;;;5057255;28;20471;-32
2022/12/31 00:08:51;;;;;;;4.20;1.10;;;;;;;;;;5057084;28;20337;-32
2022/12/31 00:11:17;;;;;;;10.32;1.10;;;;;;;;;;5055935;28;20052;-33
2022/12/31 00:13:45;;;;;;;2.97;1.05;;;;;;;;;;5057365;28;20071;-32
2022/12/31 00:16:16;;;;;;;5.32;1.05;;;;;;;;;;5057372;28;20021;-31
2022/12/31 00:18:42;;;;;;;;;;;;;;;;;;5057479;28;20024;-32
2022/12/31 00:21:08;;;;;;;4.72;0.70;;;;;;;;;;5057573;28;19987;-31
2022/12/31 00:23:35;;;;;;;4.43;1.08;;;;;;;;;;5056922;28;20021;-31
2022/12/31 00:26:21;;;;;;;5.40;0.90;;;;;;;;;;5056952;28;20368;-32
2022/12/31 00:28:48;;;;;;;5.35;1.00;;;;;;;;;;5057173;28;20364;-32
2022/12/31 00:31:16;;;;;;;6.20;1.15;;;;;;;;;;5057378;28;20517;-32
2022/12/31 00:33:43;;;;;;;7.97;2.00;;;;;;;;;;5056821;28;20048;-32
2022/12/31 00:36:12;;;;;;;3.05;1.50;;;;;;;;;;5056673;28;20039;-34
2022/12/31 00:38:39;;;;;;;1.90;0.93;;;;;;;;;;5056661;28;20031;-32
2022/12/31 00:41:06;;;;;;;2.42;0.75;;;;;;;;;;5056591;28;20029;-31
2022/12/31 00:43:33;;;;;;;2.25;1.10;;;;;;;;;;5056485;28;20021;-31
2022/12/31 00:46:00;;;;;;;2.22;0.75;;;;;;;;;;5056514;28;20112;-32
2022/12/31 00:48:26;;;;;;;2.38;1.20;;;;;;;;;;5056830;28;20455;-32
2022/12/31 00:50:54;;;;;;;1.67;0.80;;;;;;;;;;5056758;28;20033;-33
2022/12/31 00:53:20;;;;;;;4.80;0.93;;;;;;;;;;5056535;28;20059;-32
2022/12/31 00:55:47;;;;;;;3.60;0.70;;;;;;;;;;5056637;28;20025;-33
2022/12/31 00:58:14;;;;;;;1.98;0.70;;;;;;;;;;5056400;28;20155;-33
2022/12/31 01:00:40;;;;;;;1.48;0.88;;;;;;;;;;5056306;28;20368;-33
2022/12/31 01:03:07;;;;;;;5.45;1.42;;;;;;;;;;5056146;28;20049;-32
2022/12/31 01:05:34;;;;;;;4.63;0.70;;;;;;;;;;5056504;28;20340;-31
2022/12/31 01:08:01;;;;;;;4.85;1.10;;;;;;;;;;5056203;28;20053;-33
2022/12/31 01:13:13;;;;;;;2.17;0.77;;;;;;;;;;5056314;28;20083;-32
2022/12/31 01:15:40;;;;;;;3.63;0.82;;;;;;;;;;5054989;28;20120;-33
2022/12/31 01:18:07;;;;;;;2.50;0.93;;;;;;;;;;5056702;28;20091;-32
2022/12/31 01:20:38;;;;;;;2.28;0.75;;;;;;;;;;5055986;28;20029;-32
2022/12/31 01:23:05;;;;;;;2.35;0.70;;;;;;;;;;5055684;28;20116;-31
2022/12/31 01:25:34;;;;;;;5.60;1.40;;;;;;;;;;5054869;28;20029;-30
2022/12/31 01:28:00;;;;;;;1.85;0.60;;;;;;;;;;5056041;28;20036;-30
2022/12/31 01:30:26;;;;;;;6.57;0.93;;;;;;;;;;5055638;28;20356;-30
2022/12/31 01:32:53;;;;;;;2.38;0.70;;;;;;;;;;5055876;28;20033;-30
2022/12/31 01:35:19;;;;;;;2.53;0.80;;;;;;;;;;5055484;28;20104;-30
2022/12/31 01:37:45;;;;;;;3.28;1.30;;;;;;;;;;5055512;28;20039;-31
2022/12/31 01:40:11;;;;;;;4.15;1.02;;;;;;;;;;5055551;28;20028;-30
2022/12/31 01:42:38;;;;;;;1.52;1.10;;;;;;;;;;5055420;28;20064;-29
2022/12/31 01:45:09;;;;;;;0.80;0.60;;;;;;;;;;5055447;28;20100;-31
2022/12/31 01:47:37;;;;;;;2.20;0.80;;;;;;;;;;5055705;28;20075;-31
2022/12/31 01:50:09;;;;;;;2.00;1.30;;;;;;;;;;5055608;28;20029;-30
2022/12/31 01:52:41;;;;;;;4.00;0.88;;;;;;;;;;5055481;28;20112;-30
2022/12/31 01:55:07;;;;;;;3.17;0.90;;;;;;;;;;5055207;28;20471;-30
2022/12/31 01:57:33;;;;;;;5.43;1.13;;;;;;;;;;5055227;28;20037;-30
2022/12/31 02:00:00;;;;;;;1.50;0.80;;;;;;;;;;5055414;28;20087;-30
2022/12/31 02:02:27;;;;;;;2.58;1.80;;;;;;;;;;5055072;28;20375;-32
2022/12/31 02:04:55;;;;;;;2.80;1.13;;;;;;;;;;5055067;28;20055;-31
2022/12/31 02:07:21;;;;;;;2.70;0.60;;;;;;;;;;5055029;28;20044;-30
2022/12/31 02:09:47;;;;;;;4.03;0.70;;;;;;;;;;5054927;28;20032;-30
2022/12/31 02:12:13;;;;;;;3.33;0.70;;;;;;;;;;5054909;28;20029;-33
2022/12/31 02:14:42;;;;;;;2.70;1.42;;;;;;;;;;5055732;28;20033;-32
2022/12/31 02:17:29;;;;;;;2.13;0.80;;;;;;;;;;5054774;28;20104;-29
2022/12/31 02:20:18;;;;;;;2.33;1.00;;;;;;;;;;5054820;28;20120;-29
2022/12/31 02:22:47;;;;;;;1.35;0.70;;;;;;;;;;5055036;28;20028;-31
2022/12/31 02:25:13;;;;;;;1.08;0.55;;;;;;;;;;5054770;28;20033;-29
2022/12/31 02:27:46;;;;;;;0.98;0.55;;;;;;;;;;5054745;28;20057;-29
2022/12/31 02:30:18;;;;;;;1.52;0.80;;;;;;;;;;5054939;28;20025;-29
2022/12/31 02:33:02;;;;;;;1.85;0.68;;;;;;;;;;5053876;28;20021;-31
2022/12/31 02:35:30;;;;;;;1.30;0.63;;;;;;;;;;5054476;28;20056;-31
2022/12/31 02:38:00;;;;;;;2.10;0.70;;;;;;;;;;5054855;28;20020;-30
2022/12/31 02:40:27;;;;;;;5.00;0.83;;;;;;;;;;5054616;28;20025;-29
2022/12/31 02:42:53;;;;;;;2.17;0.70;;;;;;;;;;5054502;28;20458;-29
2022/12/31 02:45:22;;;;;;;2.30;0.60;;;;;;;;;;5055073;28;20344;-31
2022/12/31 02:48:00;;;;;;;1.13;0.57;;;;;;;;;;5054526;28;20355;-30
2022/12/31 02:50:36;;;;;;;3.65;0.55;;;;;;;;;;5054506;28;20035;-29
2022/12/31 02:53:23;;;;;;;1.17;0.50;;;;;;;;;;5054773;28;20107;-29
2022/12/31 02:55:55;;;;;;;1.00;0.47;;;;;;;;;;5054283;28;20455;-29
2022/12/31 03:02:12;;;;;;;1.50;0.70;;;;;;;;;;5054726;28;20152;-30
2022/12/31 03:04:30;;;;;;;1.95;0.50;;;;;;;;;;5054144;28;20060;-31
2022/12/31 03:06:41;;;;;;;6.38;1.33;;;;;;;;;;5054236;28;20052;-31
2022/12/31 03:09:14;;;;;;;3.00;0.73;;;;;;;;;;5054298;28;20025;-29
2022/12/31 03:14:25;;;;;;;3.65;0.60;;;;;;;;;;5054601;28;20138;-30
2022/12/31 03:16:52;;;;;;;1.33;0.60;;;;;;;;;;5054456;28;20028;-30
2022/12/31 03:27:33;;;;;;;2.33;1.15;;;;;;;;;;5054212;28;20044;-30
2022/12/31 03:30:00;;;;;;;2.40;0.80;;;;;;;;;;5054096;28;20029;-30
2022/12/31 03:32:26;;;;;;;1.00;0.43;;;;;;;;;;5054350;28;20040;-30
2022/12/31 03:34:54;;;;;;;1.00;0.93;;;;;;;;;;5054066;28;20024;-29
2022/12/31 03:37:21;;;;;;;1.95;0.70;;;;;;;;;;5053850;28;20025;-29
2022/12/31 03:39:47;;;;;;;2.85;0.75;;;;;;;;;;5053495;28;20037;-30
2022/12/31 03:42:14;;;;;;;1.25;0.60;;;;;;;;;;5054143;28;20356;-30
2022/12/31 03:44:41;;;;;;;3.65;0.73;;;;;;;;;;5055538;28;20028;-30
2022/12/31 03:47:07;;;;;;;2.17;0.60;;;;;;;;;;5057614;28;20113;-30
2022/12/31 03:49:34;;;;;;;3.30;0.70;;;;;;;;;;5057677;28;20029;-29
2022/12/31 03:52:02;;;;;;;1.98;0.60;;;;;;;;;;5057479;28;20037;-29
2022/12/31 03:54:29;;;;;;;1.45;0.60;;;;;;;;;;5057574;28;20029;-29
2022/12/31 03:56:55;;;;;;;1.52;0.77;;;;;;;;;;5057481;28;20086;-33
2022/12/31 03:59:22;;;;;;;2.47;0.70;;;;;;;;;;5057407;28;20082;-32
2022/12/31 04:01:49;;;;;;;3.13;0.68;;;;;;;;;;5057937;28;20048;-29
2022/12/31 04:04:15;;;;;;;3.38;0.80;;;;;;;;;;5057090;28;20057;-30
2022/12/31 04:06:42;;;;;;;4.60;0.75;;;;;;;;;;5057347;28;20032;-29
2022/12/31 04:09:09;;;;;;;3.55;0.60;;;;;;;;;;5057492;28;20025;-30
2022/12/31 04:11:35;;;;;;;1.15;0.75;;;;;;;;;;5057213;28;20034;-32
2022/12/31 04:14:02;;;;;;;0.68;0.68;;;;;;;;;;5057158;28;20032;-31
2022/12/31 04:16:31;;;;;;;0.88;0.55;;;;;;;;;;5057367;28;20035;-29
2022/12/31 04:18:58;;;;;;;2.38;0.73;;;;;;;;;;5057132;28;20352;-29
2022/12/31 04:21:25;;;;;;;0.95;0.40;;;;;;;;;;5057604;28;20353;-29
2022/12/31 04:23:52;;;;;;;1.08;0.60;;;;;;;;;;5055971;28;20029;-30
2022/12/31 04:26:18;;;;;;;1.25;0.47;;;;;;;;;;5057019;28;20024;-29
2022/12/31 04:28:45;;;;;;;2.13;0.70;;;;;;;;;;5056857;28;20366;-31
2022/12/31 04:31:11;;;;;;;1.15;0.52;;;;;;;;;;5057171;28;20036;-29
2022/12/31 04:33:37;;;;;;;2.05;0.47;;;;;;;;;;5056986;28;20029;-30
2022/12/31 04:36:04;;;;;;;2.83;0.40;;;;;;;;;;5056671;28;20029;-30
2022/12/31 04:38:30;;;;;;;1.05;0.50;;;;;;;;;;5056728;28;20118;-31
2022/12/31 04:43:42;;;;;;;3.00;0.60;;;;;;;;;;5056680;28;20040;-31
2022/12/31 04:46:08;;;;;;;2.83;0.65;;;;;;;;;;5056882;28;20037;-30
2022/12/31 04:48:35;;;;;;;0.98;0.70;;;;;;;;;;5056831;28;20033;-31
2022/12/31 04:51:01;;;;;;;2.33;1.15;;;;;;;;;;5056481;28;20029;-29
2022/12/31 04:53:28;;;;;;;1.23;0.60;;;;;;;;;;5055446;28;20029;-30
2022/12/31 04:55:54;;;;;;;1.27;0.55;;;;;;;;;;5055531;28;20047;-29
2022/12/31 04:58:20;;;;;;;0.95;0.43;;;;;;;;;;5056602;28;20025;-33
2022/12/31 05:00:50;;;;;;;1.42;0.47;;;;;;;;;;5056287;28;20063;-29
2022/12/31 05:03:17;;;;;;;1.63;0.60;;;;;;;;;;5056098;28;20059;-29
2022/12/31 05:05:43;;;;;;;0.60;0.60;;;;;;;;;;5056208;28;20041;-30
2022/12/31 05:08:09;;;;;;;4.22;1.15;;;;;;;;;;5056210;28;20031;-30
2022/12/31 05:10:36;;;;;;;3.75;0.82;;;;;;;;;;5056401;28;20066;-30
2022/12/31 05:13:03;;;;;;;1.70;0.80;;;;;;;;;;5055046;28;20033;-31
2022/12/31 05:15:29;;;;;;;2.17;0.63;;;;;;;;;;5056003;28;20032;-32
2022/12/31 05:17:55;;;;;;;1.63;0.70;;;;;;;;;;5055989;28;20154;-31
2022/12/31 05:20:21;;;;;;;1.42;0.75;;;;;;;;;;5056182;28;20386;-29
2022/12/31 05:22:47;;;;;;;1.48;0.57;;;;;;;;;;5055928;28;20025;-31
2022/12/31 05:25:13;;;;;;;2.60;0.70;;;;;;;;;;5056115;28;20094;-31
2022/12/31 05:27:40;;;;;;;2.22;0.70;;;;;;;;;;5054884;28;20510;-31
2022/12/31 05:30:06;;;;;;;2.10;0.60;;;;;;;;;;5055795;28;20411;-29
2022/12/31 05:32:33;;;;;;;1.80;0.60;;;;;;;;;;5054679;28;20474;-30
2022/12/31 05:34:59;;;;;;;4.50;0.57;;;;;;;;;;5055588;28;20108;-30
2022/12/31 05:37:26;;;;;;;2.40;0.90;;;;;;;;;;5055796;28;20341;-29
2022/12/31 05:39:52;;;;;;;2.03;0.68;;;;;;;;;;5055793;28;20029;-32
2022/12/31 05:42:18;;;;;;;1.20;0.40;;;;;;;;;;5055696;28;20021;-32
2022/12/31 05:44:45;;;;;;;1.15;0.55;;;;;;;;;;5055497;28;20037;-34
2022/12/31 05:47:11;;;;;;;3.45;0.77;;;;;;;;;;5055459;28;20049;-30
2022/12/31 05:49:37;;;;;;;1.48;0.47;;;;;;;;;;5056151;28;20033;-30
2022/12/31 05:52:03;;;;;;;2.05;0.70;;;;;;;;;;5056027;28;20033;-30
2022/12/31 05:54:29;;;;;;;2.58;0.60;;;;;;;;;;5055289;28;20048;-31
2022/12/31 05:56:56;;;;;;;9.05;0.75;;;;;;;;;;5055207;28;20033;-30
2022/12/31 05:59:22;;;;;;;3.30;1.35;;;;;;;;;;5055138;28;20028;-29
2022/12/31 06:01:48;;;;;;;0.85;0.50;;;;;;;;;;5055065;28;20025;-29
2022/12/31 06:04:14;;;;;;;0.98;0.60;;;;;;;;;;5054906;28;20062;-30
2022/12/31 06:06:40;;;;;;;1.40;0.40;;;;;;;;;;5055006;28;20094;-30
2022/12/31 06:09:06;;;;;;;1.45;1.25;;;;;;;;;;5055268;28;20028;-30
2022/12/31 06:11:33;;;;;;;1.23;0.65;;;;;;;;;;5054960;28;20044;-31
2022/12/31 06:13:59;;;;;;;1.65;0.77;;;;;;;;;;5055162;28;20055;-30
2022/12/31 06:16:25;;;;;;;2.92;0.60;;;;;;;;;;5054853;28;20076;-30
2022/12/31 06:18:52;;;;;;;1.20;0.57;;;;;;;;;;5054832;28;20024;-29
2022/12/31 06:21:18;;;;;;;1.60;0.90;;;;;;;;;;5054872;28;20104;-30
2022/12/31 06:23:45;;;;;;;0.77;0.77;;;;;;;;;;5054952;28;20098;-31
2022/12/31 06:26:11;;;;;;;0.57;0.50;;;;;;;;;;5054742;28;20500;-29
2022/12/31 06:28:37;;;;;;;1.77;0.70;;;;;;;;;;5054995;28;20071;-29
2022/12/31 06:31:04;;;;;;;1.08;0.60;;;;;;;;;;5054959;28;20064;-30
2022/12/31 06:33:31;;;;;;;1.90;1.02;;;;;;;;;;5054599;28;20021;-31
2022/12/31 06:35:58;;;;;;;1.50;0.60;;;;;;;;;;5055086;28;20028;-32
2022/12/31 06:38:24;;;;;;;1.70;0.77;;;;;;;;;;5055173;28;20108;-31
2022/12/31 06:40:50;;;;;;;1.10;0.52;;;;;;;;;;5054513;28;20036;-31
2022/12/31 06:43:17;;;;;;;5.63;0.60;;;;;;;;;;5054479;28;20360;-30
2022/12/31 06:45:43;;;;;;;0.80;0.40;;;;;;;;;;5054536;28;20448;-31
2022/12/31 06:48:09;;;;;;;1.05;0.70;;;;;;;;;;5054812;28;20029;-30
2022/12/31 06:50:35;;;;;;;0.95;0.60;;;;;;;;;;5054450;28;20468;-30
2022/12/31 06:53:01;;;;;;;4.22;0.90;;;;;;;;;;5054381;28;20055;-31
2022/12/31 06:55:27;;;;;;;0.75;0.40;;;;;;;;;;5054305;28;20116;-32
2022/12/31 06:57:54;;;;;;;1.00;0.40;;;;;;;;;;5054641;28;20021;-31
2022/12/31 07:00:20;;;;;;;0.93;0.60;;;;;;;;;;5055096;28;20067;-30
2022/12/31 07:03:05;;;;;;;1.95;0.73;;;;;;;;;;5054025;28;20128;-31
2022/12/31 07:05:46;;;;;;;2.55;0.60;;;;;;;;;;5054348;28;20021;-31
2022/12/31 07:08:12;;;;;;;;;;;;;;;;;;5054690;28;20094;-30
2022/12/31 07:10:38;;;;;;;2.13;0.50;;;;;;;;;;5054570;28;19916;-31
2022/12/31 07:13:04;;;;;;;3.13;0.50;;;;;;;;;;5054487;28;20110;-30
2022/12/31 07:15:49;;;;;;;1.17;0.60;;;;;;;;;;5053210;28;20033;-30
2022/12/31 07:18:33;;;;;;;1.05;0.68;;;;;;;;;;5054236;28;20029;-31
2022/12/31 07:21:00;;;;;;;1.05;0.50;;;;;;;;;;5058265;28;20056;-31
2022/12/31 07:23:26;;;;;;;1.63;0.80;;;;;;;;;;5058028;28;20035;-32
2022/12/31 07:26:15;;;;;;;0.40;0.40;;;;;;;;;;5057553;28;20037;-31
2022/12/31 07:29:05;;;;;;;1.08;0.65;;;;;;;;;;5050331;28;20056;-30
2022/12/31 07:31:51;;;;;;;0.80;0.50;;;;;;;;;;5058025;28;20072;-31
2022/12/31 07:34:17;;;;;;;0.32;0.32;;;;;;;;;;5058199;28;20033;-31
2022/12/31 07:36:55;;;;;;;1.73;0.77;;;;;;;;;;5058335;28;20440;-31
2022/12/31 07:39:34;;;;;;;1.33;0.60;;;;;;;;;;5057883;28;20349;-32
2022/12/31 07:42:00;;;;;;;1.10;0.60;;;;;;;;;;5057734;28;20036;-30
2022/12/31 07:44:26;;;;;;;1.63;0.82;;;;;;;;;;5058026;28;20028;-30
2022/12/31 07:46:55;;;;;;;0.95;0.60;;;;;;;;;;5057963;28;20037;-32
2022/12/31 07:49:22;;;;;;;1.13;1.02;;;;;;;;;;5057982;28;20037;-32
2022/12/31 07:51:48;;;;;;;0.40;0.32;;;;;;;;;;5057505;28;20086;-30
2022/12/31 07:54:14;;;;;;;0.85;0.50;;;;;;;;;;5057558;28;20529;-32
2022/12/31 07:56:41;;;;;;;2.67;0.80;;;;;;;;;;5057474;28;20025;-32
2022/12/31 07:59:19;;;;;;;0.80;0.80;;;;;;;;;;5057693;28;20025;-31
2022/12/31 08:01:58;;;;;;;1.23;0.60;;;;;;;;;;5057358;28;20078;-34
2022/12/31 08:04:27;;;;;;;1.05;0.68;;;;;;;;;;5057193;28;20373;-30
2022/12/31 08:06:53;;;;;;;1.50;0.50;;;;;;;;;;5057367;28;20029;-30
2022/12/31 08:09:25;;;;;;;1.00;0.60;;;;;;;;;;5057292;28;20504;-31
2022/12/31 08:11:54;;;;;;;3.33;1.02;;;;;;;;;;5057499;28;20049;-30
2022/12/31 08:14:21;;;;;;;3.08;0.70;;;;;;;;;;5057472;28;20031;-32
2022/12/31 08:16:47;;;;;;;1.23;0.50;;;;;;;;;;5057062;28;20031;-31
2022/12/31 08:19:19;;;;;;;1.13;0.47;;;;;;;;;;5057170;28;20021;-33
2022/12/31 08:21:52;;;;;;;1.05;0.70;;;;;;;;;;5057348;28;20102;-31
2022/12/31 08:24:34;;;;;;;1.25;0.50;;;;;;;;;;5056122;28;20028;-32
2022/12/31 08:27:03;;;;;;;0.85;0.30;;;;;;;;;;5057000;28;20025;-33
2022/12/31 08:29:34;;;;;;;1.52;0.80;;;;;;;;;;5056979;28;20108;-32
2022/12/31 08:32:07;;;;;;;2.10;0.70;;;;;;;;;;5055932;28;20033;-31
2022/12/31 08:34:48;;;;;;;3.25;1.33;;;;;;;;;;5057598;28;20028;-31
2022/12/31 08:37:14;;;;;;;;;;;;;;;;;;5057443;28;20064;-32
2022/12/31 08:39:49;;;;;;;5.22;0.60;;;;;;;;;;5056784;28;19951;-32
2022/12/31 08:42:24;;;;;;;2.25;0.55;;;;;;;;;;5056732;28;20021;-31
2022/12/31 08:44:55;;;;;;;1.20;0.50;;;;;;;;;;5056849;28;20108;-31
2022/12/31 08:47:40;;;;;;;1.90;0.50;;;;;;;;;;5056888;28;20033;-31
2022/12/31 08:50:06;;;;;;;2.85;0.70;;;;;;;;;;5056562;28;20053;-32
2022/12/31 08:52:32;;;;;;;1.42;0.65;;;;;;;;;;5056432;28;20044;-33
2022/12/31 08:54:59;;;;;;;0.95;0.85;;;;;;;;;;5056699;28;20033;-30
2022/12/31 08:57:28;;;;;;;2.75;0.70;;;;;;;;;;5057057;28;20032;-33
2022/12/31 08:59:57;;;;;;;0.93;0.47;;;;;;;;;;5056393;28;20127;-32
2022/12/31 09:02:38;;;;;;;0.73;0.50;;;;;;;;;;5056300;28;20020;-31
2022/12/31 09:05:05;;;;;;;1.25;0.70;;;;;;;;;;5056575;28;20136;-31
2022/12/31 09:07:35;;;;;;;0.77;0.50;;;;;;;;;;5056245;28;20024;-32
2022/12/31 09:10:13;;;;;;;1.75;0.55;;;;;;;;;;5056512;28;20423;-31
2022/12/31 09:12:51;;;;;;;0.75;0.40;;;;;;;;;;5056076;28;20032;-32
2022/12/31 09:15:23;;;;;;;4.82;1.20;;;;;;;;;;5056095;28;20044;-32
2022/12/31 09:17:51;;;;;;;2.35;0.70;;;;;;;;;;5056032;28;20033;-33
2022/12/31 09:20:27;;;;;;;2.50;0.80;;;;;;;;;;5055964;28;20036;-31
2022/12/31 09:22:53;;;;;;;2.50;0.60;;;;;;;;;;5056181;28;20126;-31
2022/12/31 09:25:20;;;;;;;2.67;0.40;;;;;;;;;;5055821;28;20040;-30
2022/12/31 09:28:02;;;;;;;1.10;0.98;;;;;;;;;;5055830;28;20036;-32
2022/12/31 09:30:32;;;;;;;1.48;0.40;;;;;;;;;;5055819;28;20025;-32
2022/12/31 09:33:07;;;;;;;2.42;0.60;;;;;;;;;;5054735;28;20037;-30
2022/12/31 09:35:47;;;;;;;1.02;0.65;;;;;;;;;;5055921;28;20055;-31
2022/12/31 09:38:32;;;;;;;1.63;0.52;;;;;;;;;;5055951;28;20460;-31
2022/12/31 09:40:58;;;;;;;1.30;0.68;;;;;;;;;;5055600;28;20036;-32
2022/12/31 09:43:39;;;;;;;0.70;0.38;;;;;;;;;;5055188;28;20116;-30
2022/12/31 09:46:05;;;;;;;;;;;;;;;;;;5055928;28;20533;-31
2022/12/31 09:48:40;;;;;;;1.73;0.50;;;;;;;;;;5055750;28;20003;-30
2022/12/31 09:51:07;;;;;;;3.20;0.73;;;;;;;;;;5055414;28;20037;-31
2022/12/31 09:53:47;;;;;;;1.20;0.63;;;;;;;;;;5055278;28;20037;-32
2022/12/31 09:56:25;;;;;;;2.88;0.60;;;;;;;;;;5055533;28;20455;-30
2022/12/31 09:59:20;;;;;;;0.90;0.50;;;;;;;;;;5055532;28;20102;-31
2022/12/31 10:02:05;;;;;;;0.98;0.50;;;;;;;;;;5002352;28;20039;-30
2022/12/31 10:04:55;;;;;;;2.40;1.50;;;;;;;;;;5054989;28;20045;-32
2022/12/31 10:07:34;;;;;;;1.42;0.40;;;;;;;;;;5055454;28;20037;-31
2022/12/31 10:10:00;;;;;;;1.42;0.60;;;;;;;;;;5055309;28;20106;-34
2022/12/31 10:12:29;;;;;;;0.73;0.40;;;;;;;;;;5055194;28;20041;-31
2022/12/31 10:15:04;;;;;;;0.65;0.40;;;;;;;;;;5055013;28;20086;-32
2022/12/31 10:17:30;;;;;;;1.10;0.60;;;;;;;;;;5054875;28;20029;-31
2022/12/31 10:20:05;;;;;;;1.00;0.60;;;;;;;;;;5055220;28;20124;-31
2022/12/31 10:22:38;;;;;;;1.77;0.57;;;;;;;;;;5054980;28;20108;-31
2022/12/31 10:25:39;;;;;;;2.63;0.57;;;;;;;;;;5055158;28;20119;-32
2022/12/31 10:28:24;;;;;;;5.30;2.83;;;;;;;;;;4993876;28;20128;-34
2022/12/31 10:31:09;;;;;;;1.70;0.57;;;;;;;;;;5050382;28;20045;-31
2022/12/31 10:33:43;;;;;;;1.35;0.50;;;;;;;;;;5054938;28;20032;-31
2022/12/31 10:36:15;;;;;;;1.80;0.70;;;;;;;;;;5054888;28;20063;-31
2022/12/31 10:38:44;;;;;;;1.33;0.52;;;;;;;;;;5054954;28;20044;-31
2022/12/31 10:41:13;;;;;;;1.88;0.70;;;;;;;;;;5054585;28;20033;-31
2022/12/31 10:43:40;;;;;;;0.80;0.63;;;;;;;;;;5053594;28;20367;-31
2022/12/31 10:46:06;;;;;;;1.20;0.52;;;;;;;;;;5054518;28;20048;-32
2022/12/31 10:48:41;;;;;;;1.13;0.60;;;;;;;;;;5054534;28;20029;-31
2022/12/31 10:51:07;;;;;;;0.85;0.40;;;;;;;;;;5054775;28;20029;-31
2022/12/31 10:53:39;;;;;;;1.23;0.63;;;;;;;;;;5054146;28;20044;-31
2022/12/31 10:56:24;;;;;;;1.70;0.80;;;;;;;;;;5054346;28;20040;-31
2022/12/31 10:58:53;;;;;;;2.00;0.50;;;;;;;;;;5054700;28;20410;-30
2022/12/31 11:01:23;;;;;;;0.95;0.50;;;;;;;;;;5054672;28;20057;-31
2022/12/31 11:04:14;;;;;;;1.35;0.55;;;;;;;;;;5054154;28;20045;-31
2022/12/31 11:06:55;;;;;;;1.25;0.47;;;;;;;;;;5054414;28;20360;-31
2022/12/31 11:09:31;;;;;;;0.65;0.50;;;;;;;;;;5054367;28;20021;-33
2022/12/31 11:12:12;;;;;;;1.85;0.70;;;;;;;;;;5054820;28;20037;-31
2022/12/31 11:15:08;;;;;;;1.98;1.58;;;;;;;;;;5054630;28;20048;-32
2022/12/31 11:17:40;;;;;;;1.77;0.80;;;;;;;;;;5001176;28;20070;-31
2022/12/31 11:20:25;;;;;;;3.38;1.05;;;;;;;;;;5054259;28;20052;-31
2022/12/31 11:22:51;;;;;;;1.75;0.70;;;;;;;;;;5054101;28;20037;-31
2022/12/31 11:25:38;;;;;;;0.88;0.57;;;;;;;;;;5054427;28;20106;-31
2022/12/31 11:28:04;;;;;;;1.30;0.90;;;;;;;;;;5043914;28;20033;-33
2022/12/31 11:30:51;;;;;;;4.65;1.25;;;;;;;;;;5054129;28;20104;-32
2022/12/31 11:33:29;;;;;;;1.70;0.65;;;;;;;;;;5054307;28;20037;-31
2022/12/31 11:35:59;;;;;;;2.15;0.68;;;;;;;;;;5054005;28;20379;-33
2022/12/31 11:38:29;;;;;;;8.38;3.50;;;;;;;;;;5054096;28;20464;-31
2022/12/31 11:40:59;;;;;;;1.13;0.65;;;;;;;;;;5054297;28;20364;-31
2022/12/31 11:43:37;;;;;;;1.50;0.73;;;;;;;;;;5053911;28;20083;-31
2022/12/31 11:46:16;;;;;;;2.25;0.63;;;;;;;;;;5053966;28;20060;-32
2022/12/31 11:48:55;;;;;;;0.82;0.57;;;;;;;;;;5053925;28;20028;-32
2022/12/31 11:51:21;;;;;;;1.65;0.77;;;;;;;;;;5054223;28;20040;-31
2022/12/31 11:53:50;;;;;;;2.60;0.60;;;;;;;;;;5054114;28;20440;-30
2022/12/31 11:56:19;;;;;;;0.47;0.47;;;;;;;;;;5054059;28;20045;-31
2022/12/31 11:58:52;;;;;;;1.92;0.35;;;;;;;;;;5053882;28;20025;-31
2022/12/31 12:01:27;;;;;;;0.90;0.60;;;;;;;;;;5054627;28;20025;-32
2022/12/31 12:03:54;;;;;;;1.17;0.80;;;;;;;;;;5053613;28;20040;-31
2022/12/31 12:06:24;;;;;;;1.20;0.75;;;;;;;;;;5056266;28;20033;-30
2022/12/31 12:08:50;;;;;;;1.13;0.70;;;;;;;;;;5057428;28;20112;-32
2022/12/31 12:11:26;;;;;;;1.42;0.68;;;;;;;;;;5057616;28;20039;-31
2022/12/31 12:13:53;;;;;;;0.65;0.50;;;;;;;;;;5057242;28;20060;-31
2022/12/31 12:16:20;;;;;;;2.35;0.60;;;;;;;;;;5057213;28;20021;-31
2022/12/31 12:18:51;;;;;;;1.45;0.75;;;;;;;;;;5056231;28;20028;-31
2022/12/31 12:21:19;;;;;;;1.80;0.82;;;;;;;;;;5057427;28;20031;-32
2022/12/31 12:24:05;;;;;;;2.13;0.77;;;;;;;;;;5056980;28;20029;-33
2022/12/31 12:26:40;;;;;;;1.45;0.77;;;;;;;;;;5057313;28;20076;-32
2022/12/31 12:29:17;;;;;;;1.33;0.70;;;;;;;;;;5057290;28;20135;-30
2022/12/31 12:31:53;;;;;;;1.63;0.80;;;;;;;;;;5057288;28;20029;-30
2022/12/31 12:34:24;;;;;;;0.57;0.47;;;;;;;;;;5056888;28;20032;-33
2022/12/31 12:36:50;;;;;;;1.42;0.50;;;;;;;;;;5057040;28;20040;-33
2022/12/31 12:39:30;;;;;;;1.48;0.85;;;;;;;;;;5057055;28;20108;-32
2022/12/31 12:42:02;;;;;;;0.85;0.60;;;;;;;;;;5057037;28;20047;-31
2022/12/31 12:44:29;;;;;;;8.25;0.85;;;;;;;;;;5055741;28;20082;-30
2022/12/31 12:46:55;;;;;;;1.17;0.75;;;;;;;;;;5057403;28;20459;-31
2022/12/31 12:49:29;;;;;;;3.42;0.80;;;;;;;;;;5056602;28;20021;-32
2022/12/31 12:51:55;;;;;;;0.88;0.77;;;;;;;;;;5055526;28;20032;-32
2022/12/31 12:54:24;;;;;;;2.80;0.73;;;;;;;;;;5056517;28;20112;-31
2022/12/31 12:57:04;;;;;;;3.00;0.80;;;;;;;;;;5055400;28;20047;-31
2022/12/31 12:59:30;;;;;;;4.53;0.85;;;;;;;;;;5056779;28;20051;-31
2022/12/31 13:02:15;;;;;;;1.00;0.65;;;;;;;;;;5056598;28;20087;-31
2022/12/31 13:04:57;;;;;;;3.38;1.15;;;;;;;;;;5017215;28;20118;-31
2022/12/31 13:07:23;;;;;;;1.40;0.70;;;;;;;;;;5017158;28;20040;-31
2022/12/31 13:10:03;;;;;;;1.88;0.70;;;;;;;;;;5016790;28;20105;-31
2022/12/31 13:12:37;;;;;;;2.05;0.73;;;;;;;;;;5016695;28;20048;-31
2022/12/31 13:15:10;;;;;;;2.05;0.77;;;;;;;;;;5016490;28;20109;-31
2022/12/31 13:17:36;;;;;;;1.80;0.80;;;;;;;;;;5015704;28;20144;-32
2022/12/31 13:20:08;;;;;;;0.98;0.55;;;;;;;;;;5016872;28;20121;-31
2022/12/31 13:22:43;;;;;;;3.28;0.93;;;;;;;;;;5016236;28;20056;-31
2022/12/31 13:25:22;;;;;;;1.50;0.60;;;;;;;;;;5016269;28;20497;-34
2022/12/31 13:27:50;;;;;;;1.17;0.63;;;;;;;;;;5016796;28;20069;-31
2022/12/31 13:30:48;;;;;;;2.25;0.98;;;;;;;;;;5016138;28;20053;-32
2022/12/31 13:33:35;;;;;;;4.13;1.02;;;;;;;;;;5004642;28;20037;-33
2022/12/31 13:36:05;;;;;;;1.42;0.85;;;;;;;;;;5015991;28;20029;-31
2022/12/31 13:38:40;;;;;;;2.05;0.70;;;;;;;;;;5015953;28;20117;-30
2022/12/31 13:41:27;;;;;;;1.92;0.77;;;;;;;;;;5015915;28;20022;-31
2022/12/31 13:44:04;;;;;;;2.58;1.90;;;;;;;;;;5015887;28;20022;-32
2022/12/31 13:46:39;;;;;;;1.35;0.73;;;;;;;;;;5015897;28;20033;-31
2022/12/31 13:49:26;;;;;;;1.20;0.60;;;;;;;;;;5016091;28;20029;-32
2022/12/31 13:51:58;;;;;;;1.17;0.65;;;;;;;;;;5016237;28;20033;-30
2022/12/31 13:54:47;;;;;;;1.45;0.70;;;;;;;;;;5016052;28;20188;-33
2022/12/31 13:57:23;;;;;;;1.48;0.80;;;;;;;;;;5012757;28;20046;-31
2022/12/31 13:59:52;;;;;;;3.03;0.80;;;;;;;;;;5015978;28;20036;-30
2022/12/31 14:02:28;;;;;;;2.30;0.75;;;;;;;;;;5018236;28;20030;-31
2022/12/31 14:04:59;;;;;;;1.73;0.73;;;;;;;;;;5055233;28;20433;-31
2022/12/31 14:07:27;;;;;;;;;;;;;;;;;;5055563;28;20490;-33
2022/12/31 14:09:54;;;;;;;2.60;1.10;;;;;;;;;;5055080;28;19919;-34
2022/12/31 14:12:39;;;;;;;2.50;0.82;;;;;;;;;;5055011;28;20060;-31
2022/12/31 14:15:12;;;;;;;1.52;0.93;;;;;;;;;;5055056;28;20029;-30
2022/12/31 14:17:57;;;;;;;2.15;1.02;;;;;;;;;;5055205;28;20052;-32
2022/12/31 14:20:28;;;;;;;1.88;1.13;;;;;;;;;;5054924;28;20029;-31
2022/12/31 14:22:54;;;;;;;;;;;;;;;;;;5055823;28;20033;-31
2022/12/31 14:25:28;;;;;;;2.55;1.17;;;;;;;;;;5055420;28;19981;-32
2022/12/31 14:27:56;;;;;;;1.48;1.00;;;;;;;;;;5054967;28;20177;-31
2022/12/31 14:30:25;;;;;;;0.70;0.60;;;;;;;;;;5054086;28;20029;-31
2022/12/31 14:33:00;;;;;;;2.97;1.20;;;;;;;;;;5053753;28;20035;-30
2022/12/31 14:35:50;;;;;;;2.47;1.10;;;;;;;;;;5054947;28;20052;-31
2022/12/31 14:38:32;;;;;;;3.10;1.23;;;;;;;;;;5054949;28;20448;-31
2022/12/31 14:41:16;;;;;;;1.05;0.63;;;;;;;;;;5054931;28;20087;-31
2022/12/31 14:43:57;;;;;;;3.08;0.80;;;;;;;;;;5054787;28;20047;-31
2022/12/31 14:46:24;;;;;;;;;;;;;;;;;;5055028;28;20388;-32
2022/12/31 14:49:06;;;;;;;1.70;0.93;;;;;;;;;;5054561;28;19905;-32
2022/12/31 14:51:34;;;;;;;11.75;3.00;;;;;;;;;;5054822;28;20043;-31
2022/12/31 14:54:00;;;;;;;3.05;1.23;;;;;;;;;;5054711;28;20033;-31
2022/12/31 14:56:29;;;;;;;2.72;1.13;;;;;;;;;;5054652;28;20037;-31
2022/12/31 14:58:56;;;;;;;3.83;1.30;;;;;;;;;;5054415;28;20470;-30
2022/12/31 15:01:24;;;;;;;2.17;1.05;;;;;;;;;;5054695;28;20057;-31
2022/12/31 15:03:51;;;;;;;2.22;0.73;;;;;;;;;;5054207;28;20045;-32
2022/12/31 15:06:23;;;;;;;2.75;1.38;;;;;;;;;;5054386;28;20094;-31
2022/12/31 15:09:08;;;;;;;3.10;1.05;;;;;;;;;;5054629;28;20434;-33
2022/12/31 15:11:52;;;;;;;2.30;0.80;;;;;;;;;;5054571;28;20436;-32
2022/12/31 15:14:18;;;;;;;1.88;0.88;;;;;;;;;;5054609;28;20521;-31
2022/12/31 15:17:00;;;;;;;2.80;1.05;;;;;;;;;;5054456;28;20352;-31
2022/12/31 15:19:35;;;;;;;2.88;0.88;;;;;;;;;;5054568;28;20412;-31
2022/12/31 15:22:20;;;;;;;1.27;0.70;;;;;;;;;;5053184;28;20060;-32
2022/12/31 15:24:46;;;;;;;1.27;0.80;;;;;;;;;;5054143;28;20036;-32
2022/12/31 15:27:45;;;;;;;3.28;0.80;;;;;;;;;;5054732;28;20066;-31
2022/12/31 15:30:31;;;;;;;1.95;0.77;;;;;;;;;;5021361;28;20120;-31